Time;durP1;ratioP1;P1;durP2;ratioP2;P2;SDS_P1;SDS_P2;PMS_P1;PMS_P2;Temp;Humidity;BMP_temperature;BMP_pressure;BME280_temperature;BME280_humidity;BME280_pressure;Samples;Min_cycle;Max_cycle;Signal;HPM_P1;HPM_P2
2022/06/20 00:00:48;;;;;;;;;;;;;;;27.75;50.87;99039.41;2029167;29;20497;-79
2022/06/20 00:01:48;;;;;;;;;;;;;;;27.75;50.62;99039.41;2032812;29;20231;-79
2022/06/20 00:02:50;;;;;;;;;;;;;;;27.74;50.58;99044.19;2037882;28;19914;-79
2022/06/20 00:03:51;;;;;;;;;;;;;;;27.75;51.25;99034.59;2033648;29;19977;-79
2022/06/20 00:04:53;;;;;;;;;;;;;;;27.75;50.82;99033.84;2038393;29;19914;-79
2022/06/20 00:05:53;;;;;;;;;;;;;;;27.72;50.76;99033.56;2039780;28;19976;-79
2022/06/20 00:06:54;;;;;;;;;;;;;;;27.72;50.59;99030.78;2044440;28;19969;-79
2022/06/20 00:07:55;;;;;;;;;;;;;;;27.72;50.72;99035.56;2038960;29;19906;-79
2022/06/20 00:08:55;;;;;;;;;;;;;;;27.72;50.63;99044.69;2041671;29;20353;-79
2022/06/20 00:09:56;;;;;;;;;;;;;;;27.72;50.76;99035.56;2034928;29;19910;-79
2022/06/20 00:10:56;;;;;;;;;;;;;;;27.71;50.53;99045.94;2033866;29;19911;-79
2022/06/20 00:11:56;;;;;;;;;;;;;;;27.70;50.79;99041.66;2041631;29;19958;-79
2022/06/20 00:12:58;;;;;;;;;;;;;;;27.71;50.81;99034.03;2034190;29;19906;-79
2022/06/20 00:13:58;;;;;;;;;;;;;;;27.70;51.16;99036.09;2027435;29;19910;-79
2022/06/20 00:14:59;;;;;;;;;;;;;;;27.70;51.15;99038.88;2032316;29;19911;-79
2022/06/20 00:16:03;;;;;;;;;;;;;;;27.69;51.60;99037.34;2033274;29;19966;-79
2022/06/20 00:17:08;;;;;;;;;;;;;;;27.70;51.26;99040.91;2043902;29;20441;-78
2022/06/20 00:18:09;;;;;;;;;;;;;;;27.69;51.61;99045.69;2036328;29;19910;-79
2022/06/20 00:19:11;;;;;;;;;;;;;;;27.68;51.08;99041.38;2035204;29;20009;-79
2022/06/20 00:20:13;;;;;;;;;;;;;;;27.68;51.21;99040.63;2041609;29;19965;-79
2022/06/20 00:21:14;;;;;;;;;;;;;;;27.68;51.15;99040.63;2040371;29;20600;-79
2022/06/20 00:22:15;;;;;;;;;;;;;;;27.69;51.67;99042.16;2042481;28;19989;-79
2022/06/20 00:23:15;;;;;;;;;;;;;;;27.68;51.80;99046.94;2040170;28;19902;-79
2022/06/20 00:24:16;;;;;;;;;;;;;;;27.69;51.77;99053.28;2041606;28;19910;-79
2022/06/20 00:25:16;;;;;;;;;;;;;;;27.68;51.14;99046.94;2034388;29;19942;-79
2022/06/20 00:26:17;;;;;;;;;;;;;;;27.67;51.07;99044.66;2037747;29;19902;-79
2022/06/20 00:27:18;;;;;;;;;;;;;;;27.66;50.98;99043.88;2031327;29;19915;-79
2022/06/20 00:28:18;;;;;;;;;;;;;;;27.66;51.16;99049.44;2032583;29;19945;-78
2022/06/20 00:29:18;;;;;;;;;;;;;;;27.66;51.18;99049.44;2041652;29;19911;-79
2022/06/20 00:30:19;;;;;;;;;;;;;;;27.66;51.33;99046.66;2039927;29;19985;-80
2022/06/20 00:31:19;;;;;;;;;;;;;;;27.65;52.00;99050.69;2039374;29;19915;-79
2022/06/20 00:32:20;;;;;;;;;;;;;;;27.66;51.58;99057.03;2039394;29;19990;-79
2022/06/20 00:33:20;;;;;;;;;;;;;;;27.65;51.64;99052.75;2038954;28;19953;-79
2022/06/20 00:34:20;;;;;;;;;;;;;;;27.64;51.49;99051.97;2040171;29;19910;-79
2022/06/20 00:35:21;;;;;;;;;;;;;;;27.64;51.70;99056.78;2037296;29;20286;-78
2022/06/20 00:36:21;;;;;;;;;;;;;;;27.62;52.46;99057.28;2040966;29;19925;-78
2022/06/20 00:37:21;;;;;;;;;;;;;;;27.63;51.91;99058.03;2041625;29;19969;-79
2022/06/20 00:38:22;;;;;;;;;;;;;;;27.62;51.95;99060.06;2036260;29;19915;-79
2022/06/20 00:39:22;;;;;;;;;;;;;;;27.62;51.46;99062.06;2038082;29;19910;-79
2022/06/20 00:40:46;;;;;;;;;;;;;;;27.61;51.59;99054.97;2029099;29;19950;-79
2022/06/20 00:41:47;;;;;;;;;;;;;;;27.61;52.13;99057.75;2025688;29;20242;-79
2022/06/20 00:42:49;;;;;;;;;;;;;;;27.61;52.44;99066.09;2035906;29;19988;-79
2022/06/20 00:43:51;;;;;;;;;;;;;;;27.61;52.79;99060.53;2037558;29;20325;-78
2022/06/20 00:44:55;;;;;;;;;;;;;;;27.60;52.39;99061.81;2040520;29;20416;-79
2022/06/20 00:45:57;;;;;;;;;;;;;;;27.60;52.48;99067.38;2037436;29;19996;-77
2022/06/20 00:47:00;;;;;;;;;;;;;;;27.60;52.51;99068.13;2026161;29;19953;-80
2022/06/20 00:48:06;;;;;;;;;;;;;;;27.59;53.08;99063.84;2032611;29;20265;-78
2022/06/20 00:49:22;;;;;;;;;;;;;;;27.60;52.87;99067.38;2041543;29;19997;-79
2022/06/20 00:50:30;;;;;;;;;;;;;;;27.60;53.15;99070.16;2040634;29;20826;-79
2022/06/20 00:51:31;;;;;;;;;;;;;;;27.59;53.62;99072.19;2042398;29;20678;-79
2022/06/20 00:52:45;;;;;;;;;;;;;;;27.59;53.35;99076.97;2044515;29;20463;-79
2022/06/20 00:53:52;;;;;;;;;;;;;;;27.57;52.84;99071.91;2035059;29;19930;-78
2022/06/20 00:54:56;;;;;;;;;;;;;;;27.57;53.17;99074.69;2033682;29;20340;-79
2022/06/20 00:56:03;;;;;;;;;;;;;;;27.57;53.20;99074.69;2041118;29;19997;-78
2022/06/20 00:57:17;;;;;;;;;;;;;;;27.57;53.47;99074.69;2040769;29;20329;-79
2022/06/20 00:58:30;;;;;;;;;;;;;;;27.55;52.62;99077.19;2039276;29;20204;-79
2022/06/20 00:59:32;;;;;;;;;;;;;;;27.56;52.34;99087.06;2034201;29;19914;-79
2022/06/20 01:00:35;;;;;;;;;;;;;;;27.57;52.69;99088.59;2029091;29;19957;-79
2022/06/20 01:01:38;;;;;;;;;;;;;;;27.56;53.03;99083.50;2025304;29;19915;-79
2022/06/20 01:02:40;;;;;;;;;;;;;;;27.55;52.33;99082.75;2027345;29;20012;-79
2022/06/20 01:03:44;;;;;;;;;;;;;;;27.54;52.49;99081.25;2026789;29;19911;-79
2022/06/20 01:04:47;;;;;;;;;;;;;;;27.55;52.74;99084.78;2025626;29;20151;-79
2022/06/20 01:05:48;;;;;;;;;;;;;;;27.55;52.87;99082.00;2026861;29;20687;-80
2022/06/20 01:06:52;;;;;;;;;;;;;;;27.54;52.79;99084.03;2038091;29;20714;-79
2022/06/20 01:07:56;;;;;;;;;;;;;;;27.53;53.14;99085.28;2038248;29;19922;-79
2022/06/20 01:08:58;;;;;;;;;;;;;;;27.54;52.33;99086.03;2040330;29;19918;-79
2022/06/20 01:10:00;;;;;;;;;;;;;;;27.54;52.68;99091.59;2042847;28;20340;-79
2022/06/20 01:11:06;;;;;;;;;;;;;;;27.53;53.60;99088.06;2038788;29;19918;-79
2022/06/20 01:12:10;;;;;;;;;;;;;;;27.52;53.45;99094.88;2031404;29;19914;-79
2022/06/20 01:13:13;;;;;;;;;;;;;;;27.53;53.76;99095.63;2034368;29;19922;-78
2022/06/20 01:14:22;;;;;;;;;;;;;;;27.52;53.80;99100.44;2036670;29;19922;-79
2022/06/20 01:15:24;;;;;;;;;;;;;;;27.52;54.01;99099.69;2029362;28;19970;-79
2022/06/20 01:16:30;;;;;;;;;;;;;;;27.52;53.84;99110.78;2038403;29;20342;-79
2022/06/20 01:17:36;;;;;;;;;;;;;;;27.52;53.94;99105.25;2038767;28;20174;-79
2022/06/20 01:18:36;;;;;;;;;;;;;;;27.51;54.31;99098.91;2029085;29;20551;-78
2022/06/20 01:19:46;;;;;;;;;;;;;;;27.50;54.24;99097.38;2025433;29;19911;-78
2022/06/20 01:20:50;;;;;;;;;;;;;;;27.51;54.53;99096.13;2035295;29;19914;-78
2022/06/20 01:21:50;;;;;;;;;;;;;;;27.50;54.56;99097.38;2033706;29;19935;-78
2022/06/20 01:23:02;;;;;;;;;;;;;;;27.48;54.37;99094.31;2034430;29;19911;-79
2022/06/20 01:24:05;;;;;;;;;;;;;;;27.49;54.41;99095.84;2041467;28;19914;-78
2022/06/20 01:25:06;;;;;;;;;;;;;;;27.48;54.69;99093.56;2041396;28;19915;-78
2022/06/20 01:26:12;;;;;;;;;;;;;;;27.48;54.56;99099.88;2034861;29;20302;-79
2022/06/20 01:27:20;;;;;;;;;;;;;;;27.48;54.91;99094.31;2034576;29;19917;-79
2022/06/20 01:28:27;;;;;;;;;;;;;;;27.48;54.85;99104.69;2034007;29;20289;-79
2022/06/20 01:29:27;;;;;;;;;;;;;;;27.47;54.50;99095.56;2030507;29;19933;-79
2022/06/20 01:30:30;;;;;;;;;;;;;;;27.47;54.45;99095.56;2025049;29;19918;-79
2022/06/20 01:31:31;;;;;;;;;;;;;;;27.48;54.64;99096.34;2025802;29;19926;-79
2022/06/20 01:32:32;;;;;;;;;;;;;;;27.47;54.74;99097.59;2019038;29;19952;-79
2022/06/20 01:33:32;;;;;;;;;;;;;;;27.46;54.91;99102.38;2032353;29;19986;-79
2022/06/20 01:34:33;;;;;;;;;;;;;;;27.45;54.83;99100.84;2036878;29;19914;-79
2022/06/20 01:38:15;;;;;;;;;;;;;;;27.45;55.13;99108.44;2040622;29;19914;-79
2022/06/20 01:39:16;;;;;;;;;;;;;;;27.44;55.27;99104.16;2039265;29;19911;-78
2022/06/20 01:40:17;;;;;;;;;;;;;;;27.45;55.67;99105.66;2035090;29;20603;-79
2022/06/20 01:42:42;;;;;;;;;;;;;;;27.43;56.16;99103.38;2009946;29;19915;-78
2022/06/20 01:43:43;;;;;;;;;;;;;;;27.43;55.77;99106.16;2030940;29;19910;-79
2022/06/20 01:44:45;;;;;;;;;;;;;;;27.43;55.74;99102.63;2035912;29;19917;-79
2022/06/20 01:45:57;;;;;;;;;;;;;;;27.43;55.66;99114.50;2037604;29;19910;-79
2022/06/20 01:46:58;;;;;;;;;;;;;;;27.42;55.44;99101.84;2026887;29;20267;-79
2022/06/20 01:48:02;;;;;;;;;;;;;;;27.42;55.61;99103.88;2023840;29;19910;-79
2022/06/20 01:49:05;;;;;;;;;;;;;;;27.41;55.59;99108.66;2030729;29;19921;-79
2022/06/20 01:50:06;;;;;;;;;;;;;;;27.41;55.84;99111.44;2040811;29;19910;-78
2022/06/20 01:51:10;;;;;;;;;;;;;;;27.39;56.61;99113.94;2040371;29;19998;-78
2022/06/20 01:52:16;;;;;;;;;;;;;;;27.40;56.38;99112.69;2040459;28;19993;-79
2022/06/20 01:53:18;;;;;;;;;;;;;;;27.40;56.28;99118.25;2039848;28;19962;-79
2022/06/20 01:54:19;;;;;;;;;;;;;;;27.40;56.42;99114.72;2035368;29;19925;-79
2022/06/20 01:55:22;;;;;;;;;;;;;;;27.39;55.82;99107.66;2034015;29;20413;-79
2022/06/20 01:56:25;;;;;;;;;;;;;;;27.38;55.67;99112.44;2031593;29;20313;-79
2022/06/20 01:57:27;;;;;;;;;;;;;;;27.39;55.76;99113.22;2032686;29;19915;-80
2022/06/20 01:58:33;;;;;;;;;;;;;;;27.38;55.46;99111.69;2042147;29;20310;-80
2022/06/20 01:59:45;;;;;;;;;;;;;;;27.39;55.48;99118.78;2040424;28;19917;-79
2022/06/20 02:00:46;;;;;;;;;;;;;;;27.38;55.99;99114.47;2043225;29;19917;-79
2022/06/20 02:01:47;;;;;;;;;;;;;;;27.37;56.00;99115.72;2042292;29;19914;-79
2022/06/20 02:02:51;;;;;;;;;;;;;;;27.35;56.01;99113.41;2031666;29;19915;-79
2022/06/20 02:03:52;;;;;;;;;;;;;;;27.35;55.51;99116.19;2034635;29;19990;-79
2022/06/20 02:04:52;;;;;;;;;;;;;;;27.35;56.05;99113.41;2042077;28;19918;-79
2022/06/20 02:05:55;;;;;;;;;;;;;;;27.34;55.91;99114.66;2038787;29;20734;-79
2022/06/20 02:06:55;;;;;;;;;;;;;;;27.36;55.67;99117.72;2035772;29;19917;-78
2022/06/20 02:08:03;;;;;;;;;;;;;;;27.35;55.64;99112.66;2043972;29;19918;-78
2022/06/20 02:09:04;;;;;;;;;;;;;;;27.34;55.39;99111.88;2042125;29;19914;-78
2022/06/20 02:10:05;;;;;;;;;;;;;;;27.35;55.79;99116.19;2037323;29;20020;-78
2022/06/20 02:11:11;;;;;;;;;;;;;;;27.34;55.62;99109.09;2042402;29;20001;-79
2022/06/20 02:12:12;;;;;;;;;;;;;;;27.34;56.06;99113.94;2040815;29;19914;-78
2022/06/20 02:13:13;;;;;;;;;;;;;;;27.34;55.89;99117.44;2042613;29;20392;-79
2022/06/20 02:14:28;;;;;;;;;;;;;;;27.33;56.27;99115.19;2040484;29;20329;-79
2022/06/20 02:15:30;;;;;;;;;;;;;;;27.33;56.29;99113.16;2041572;29;20380;-79
2022/06/20 02:16:33;;;;;;;;;;;;;;;27.32;56.04;99111.63;2042024;29;19903;-79
2022/06/20 02:17:35;;;;;;;;;;;;;;;27.32;55.95;99108.84;2039669;29;19969;-77
2022/06/20 02:18:38;;;;;;;;;;;;;;;27.31;55.87;99104.53;2040392;29;19921;-79
2022/06/20 02:19:43;;;;;;;;;;;;;;;27.30;56.46;99105.78;2036716;29;20328;-79
2022/06/20 02:20:46;;;;;;;;;;;;;;;27.31;56.19;99112.88;2036514;29;20005;-79
2022/06/20 02:21:47;;;;;;;;;;;;;;;27.30;56.08;99114.13;2040072;29;19910;-79
2022/06/20 02:22:49;;;;;;;;;;;;;;;27.30;56.00;99111.34;2040686;29;19910;-79
2022/06/20 02:23:52;;;;;;;;;;;;;;;27.29;56.29;99115.38;2037002;29;19921;-78
2022/06/20 02:24:56;;;;;;;;;;;;;;;27.29;56.62;99104.25;2039656;29;20022;-78
2022/06/20 02:25:57;;;;;;;;;;;;;;;27.28;56.70;99103.50;2044221;29;19914;-79
2022/06/20 02:27:02;;;;;;;;;;;;;;;27.29;56.54;99107.03;2041119;29;20470;-78
2022/06/20 02:28:05;;;;;;;;;;;;;;;27.28;56.43;99108.31;2040151;29;20362;-79
2022/06/20 02:29:09;;;;;;;;;;;;;;;27.28;56.58;99109.06;2027513;29;19911;-78
2022/06/20 02:30:10;;;;;;;;;;;;;;;27.27;56.32;99104.00;2036108;29;19997;-78
2022/06/20 02:31:11;;;;;;;;;;;;;;;27.27;56.80;99107.56;2039091;29;20057;-79
2022/06/20 02:32:27;;;;;;;;;;;;;;;27.25;55.94;99096.16;2044261;29;20660;-78
2022/06/20 02:33:29;;;;;;;;;;;;;;;27.24;56.00;99105.75;2043513;29;19918;-78
2022/06/20 02:34:29;;;;;;;;;;;;;;;27.24;56.44;99097.41;2043061;28;19926;-78
2022/06/20 02:35:30;;;;;;;;;;;;;;;27.24;56.60;99096.63;2050299;28;19914;-78
2022/06/20 02:36:31;;;;;;;;;;;;;;;27.24;57.04;99093.84;2045087;28;19953;-78
2022/06/20 02:37:34;;;;;;;;;;;;;;;27.24;56.59;99104.97;2042959;29;19914;-79
2022/06/20 02:38:36;;;;;;;;;;;;;;;27.24;56.58;99100.19;2041252;29;20361;-79
2022/06/20 02:39:40;;;;;;;;;;;;;;;27.23;56.75;99095.88;2040949;29;19910;-79
2022/06/20 02:40:42;;;;;;;;;;;;;;;27.23;56.95;99100.69;2042073;29;19915;-79
2022/06/20 02:41:43;;;;;;;;;;;;;;;27.23;56.47;99093.09;2046169;28;19918;-79
2022/06/20 02:42:56;;;;;;;;;;;;;;;27.23;56.93;99095.13;2045906;28;19903;-79
2022/06/20 02:44:00;;;;;;;;;;;;;;;27.21;56.36;99092.84;2034345;29;19915;-79
2022/06/20 02:45:03;;;;;;;;;;;;;;;27.22;56.29;99090.81;2033510;29;19917;-78
2022/06/20 02:46:07;;;;;;;;;;;;;;;27.21;55.98;99090.06;2031536;29;20385;-79
2022/06/20 02:47:08;;;;;;;;;;;;;;;27.21;56.71;99092.06;2042467;29;19920;-79
2022/06/20 02:48:09;;;;;;;;;;;;;;;27.20;56.89;99093.31;2037929;28;19911;-79
2022/06/20 02:49:10;;;;;;;;;;;;;;;27.20;56.18;99098.88;2034729;29;19945;-79
2022/06/20 02:50:12;;;;;;;;;;;;;;;27.18;55.94;99099.38;2040462;28;19921;-79
2022/06/20 02:51:15;;;;;;;;;;;;;;;27.18;56.80;99099.38;2041266;29;19918;-79
2022/06/20 02:52:19;;;;;;;;;;;;;;;27.18;56.01;99093.03;2033934;29;19942;-79
2022/06/20 02:53:22;;;;;;;;;;;;;;;27.17;56.33;99097.88;2033167;29;19911;-79
2022/06/20 02:54:25;;;;;;;;;;;;;;;27.17;57.12;99091.53;2033685;29;19980;-79
2022/06/20 02:55:26;;;;;;;;;;;;;;;27.15;56.42;99094.81;2030767;29;20374;-78
2022/06/20 02:56:29;;;;;;;;;;;;;;;27.14;55.76;99093.28;2041194;29;19917;-78
2022/06/20 02:57:40;;;;;;;;;;;;;;;27.15;56.21;99099.59;2038800;28;19919;-79
2022/06/20 02:58:42;;;;;;;;;;;;;;;27.15;55.90;99097.59;2039349;28;19900;-79
2022/06/20 02:59:51;;;;;;;;;;;;;;;27.16;56.32;99103.91;2041440;29;19906;-79
2022/06/20 03:00:55;;;;;;;;;;;;;;;27.15;57.21;99097.59;2039821;29;19966;-79
2022/06/20 03:02:02;;;;;;;;;;;;;;;27.15;57.16;99105.16;2039825;29;20492;-79
2022/06/20 03:03:09;;;;;;;;;;;;;;;27.15;57.57;99100.38;2036003;29;19961;-78
2022/06/20 03:04:10;;;;;;;;;;;;;;;27.13;57.29;99102.88;2042040;29;20165;-79
2022/06/20 03:05:15;;;;;;;;;;;;;;;27.14;57.02;99109.94;2042136;29;19918;-79
2022/06/20 03:06:22;;;;;;;;;;;;;;;27.13;56.99;99099.31;2034908;29;20272;-78
2022/06/20 03:07:25;;;;;;;;;;;;;;;27.13;57.51;99113.22;2040833;29;19910;-79
2022/06/20 03:08:26;;;;;;;;;;;;;;;27.13;57.26;99107.66;2040883;29;19961;-79
2022/06/20 03:09:29;;;;;;;;;;;;;;;27.12;58.28;99111.72;2042829;29;19911;-79
2022/06/20 03:10:41;;;;;;;;;;;;;;;27.12;58.13;99117.28;2039061;28;19933;-79
2022/06/20 03:11:42;;;;;;;;;;;;;;;27.11;57.55;99115.75;2046329;28;20634;-79
2022/06/20 03:12:43;;;;;;;;;;;;;;;27.11;56.81;99110.94;2041058;29;19914;-79
2022/06/20 03:13:43;;;;;;;;;;;;;;;27.11;56.90;99112.97;2040596;28;19918;-79
2022/06/20 03:14:50;;;;;;;;;;;;;;;27.11;56.89;99107.41;2040882;29;19910;-79
2022/06/20 03:15:52;;;;;;;;;;;;;;;27.11;57.07;99115.75;2039970;29;20329;-78
2022/06/20 03:16:52;;;;;;;;;;;;;;;27.10;57.02;99106.63;2042323;29;19917;-78
2022/06/20 03:17:53;;;;;;;;;;;;;;;27.10;56.79;99105.88;2043542;29;19918;-78
2022/06/20 03:18:55;;;;;;;;;;;;;;;27.09;57.00;99107.13;2043835;29;19914;-79
2022/06/20 03:19:59;;;;;;;;;;;;;;;27.09;56.51;99107.88;2044570;29;20548;-78
2022/06/20 03:21:00;;;;;;;;;;;;;;;27.10;56.63;99108.66;2037133;29;19911;-78
2022/06/20 03:22:02;;;;;;;;;;;;;;;27.09;56.87;99116.22;2037729;29;19941;-79
2022/06/20 03:23:21;;;;;;;;;;;;;;;27.10;56.36;99117.00;2036963;29;19914;-79
2022/06/20 03:24:24;;;;;;;;;;;;;;;27.09;56.89;99126.56;2034797;29;19911;-79
2022/06/20 03:25:27;;;;;;;;;;;;;;;27.08;56.34;99119.47;2037065;29;19914;-79
2022/06/20 03:26:28;;;;;;;;;;;;;;;27.07;56.69;99123.53;2036247;29;19965;-79
2022/06/20 03:27:30;;;;;;;;;;;;;;;27.07;56.84;99129.09;2032450;29;19979;-79
2022/06/20 03:28:32;;;;;;;;;;;;;;;27.07;56.90;99132.63;2031643;29;20641;-79
2022/06/20 03:29:37;;;;;;;;;;;;;;;27.07;56.73;99126.31;2042243;29;19934;-78
2022/06/20 03:30:37;;;;;;;;;;;;;;;27.05;56.70;99118.47;2045721;28;19910;-79
2022/06/20 03:31:39;;;;;;;;;;;;;;;27.06;57.07;99133.13;2041509;28;20572;-79
2022/06/20 03:32:39;;;;;;;;;;;;;;;27.04;57.06;99130.06;2034920;29;19917;-79
2022/06/20 03:33:40;;;;;;;;;;;;;;;27.05;57.08;99134.38;2039959;29;19914;-79
2022/06/20 03:34:40;;;;;;;;;;;;;;;27.05;56.76;99137.16;2029174;29;19967;-79
2022/06/20 03:35:43;;;;;;;;;;;;;;;27.04;56.60;99132.84;2032433;29;19911;-80
2022/06/20 03:36:46;;;;;;;;;;;;;;;27.04;56.68;99127.28;2038106;29;20086;-77
2022/06/20 03:37:47;;;;;;;;;;;;;;;27.04;56.50;99138.41;2038105;29;20013;-79
2022/06/20 03:38:48;;;;;;;;;;;;;;;27.04;56.44;99138.41;2034423;29;20393;-78
2022/06/20 03:39:48;;;;;;;;;;;;;;;27.03;56.28;99136.88;2033230;29;19907;-79
2022/06/20 03:40:49;;;;;;;;;;;;;;;27.02;56.47;99144.44;2037074;29;19918;-79
2022/06/20 03:41:50;;;;;;;;;;;;;;;27.02;57.67;99146.47;2041365;29;19917;-79
2022/06/20 03:42:51;;;;;;;;;;;;;;;27.01;56.71;99144.94;2036071;29;19958;-79
2022/06/20 03:44:11;;;;;;;;;;;;;;;26.98;57.01;99140.34;2033662;29;19907;-79
2022/06/20 03:45:14;;;;;;;;;;;;;;;26.98;56.67;99143.13;2034979;29;20352;-79
2022/06/20 03:46:18;;;;;;;;;;;;;;;26.98;56.54;99149.47;2041991;29;20161;-79
2022/06/20 03:47:21;;;;;;;;;;;;;;;26.98;56.54;99152.22;2041403;29;19918;-79
2022/06/20 03:48:25;;;;;;;;;;;;;;;26.99;57.06;99150.22;2028126;29;19913;-79
2022/06/20 03:49:30;;;;;;;;;;;;;;;27.01;56.52;99156.06;2030211;29;19954;-78
2022/06/20 03:50:37;;;;;;;;;;;;;;;26.99;57.45;99161.34;2034930;29;20195;-78
2022/06/20 03:51:40;;;;;;;;;;;;;;;26.98;57.25;99157.78;2042619;28;19917;-78
2022/06/20 03:52:55;;;;;;;;;;;;;;;26.98;56.94;99157.03;2044387;29;19914;-78
2022/06/20 03:54:04;;;;;;;;;;;;;;;26.97;56.84;99152.72;2028328;29;19911;-78
2022/06/20 03:55:05;;;;;;;;;;;;;;;26.97;56.81;99161.06;2029383;29;19915;-79
2022/06/20 03:56:11;;;;;;;;;;;;;;;26.95;57.06;99158.03;2041321;29;19932;-78
2022/06/20 03:57:16;;;;;;;;;;;;;;;26.95;56.98;99163.56;2040144;29;19949;-79
2022/06/20 03:58:23;;;;;;;;;;;;;;;26.97;55.59;99166.59;2041404;29;19922;-79
2022/06/20 03:59:34;;;;;;;;;;;;;;;26.95;56.92;99163.56;2040608;28;20017;-79
2022/06/20 04:00:48;;;;;;;;;;;;;;;26.94;56.86;99168.38;2038366;29;20118;-79
2022/06/20 04:01:52;;;;;;;;;;;;;;;26.94;57.30;99162.81;2042383;29;20152;-79
2022/06/20 04:02:55;;;;;;;;;;;;;;;26.94;56.85;99162.81;2043324;29;20657;-78
2022/06/20 04:04:18;;;;;;;;;;;;;;;26.94;56.78;99167.59;2042553;29;20412;-78
2022/06/20 04:05:33;;;;;;;;;;;;;;;26.94;57.01;99168.38;2027132;29;20613;-79
2022/06/20 04:06:34;;;;;;;;;;;;;;;26.93;56.95;99177.19;2040775;28;19910;-79
2022/06/20 04:07:39;;;;;;;;;;;;;;;26.91;56.84;99174.16;2039721;29;20386;-79
2022/06/20 04:11:27;;;;;;;;;;;;;;;26.88;57.54;99176.63;2041864;29;19946;-79
2022/06/20 04:12:44;;;;;;;;;;;;;;;26.89;57.86;99180.94;2031763;29;19907;-79
2022/06/20 04:13:52;;;;;;;;;;;;;;;26.89;57.18;99180.94;2031632;29;19910;-79
2022/06/20 04:15:06;;;;;;;;;;;;;;;26.88;57.62;99173.84;2034849;29;19922;-79
2022/06/20 04:16:10;;;;;;;;;;;;;;;26.88;57.48;99178.66;2042752;28;19911;-78
2022/06/20 04:18:38;;;;;;;;;;;;;;;26.87;58.02;99177.88;2017045;29;19997;-79
2022/06/20 04:19:39;;;;;;;;;;;;;;;26.86;58.52;99179.09;2034273;29;19915;-79
2022/06/20 04:20:39;;;;;;;;;;;;;;;26.86;57.80;99179.09;2040786;29;19911;-79
2022/06/20 04:21:46;;;;;;;;;;;;;;;26.85;57.63;99176.84;2043274;29;19953;-79
2022/06/20 04:22:49;;;;;;;;;;;;;;;26.85;57.64;99177.59;2027940;29;19946;-78
2022/06/20 04:24:01;;;;;;;;;;;;;;;26.86;58.42;99168.00;2033293;29;20200;-79
2022/06/20 04:25:11;;;;;;;;;;;;;;;26.86;57.75;99173.53;2040896;29;20352;-80
2022/06/20 04:26:18;;;;;;;;;;;;;;;26.85;58.08;99166.47;2034821;29;20045;-78
2022/06/20 04:27:43;;;;;;;;;;;;;;;26.85;58.39;99180.38;2033555;29;19974;-79
2022/06/20 04:28:48;;;;;;;;;;;;;;;26.84;57.67;99164.94;2031441;29;19922;-79
2022/06/20 04:29:52;;;;;;;;;;;;;;;26.83;58.55;99174.53;2033051;29;19911;-79
2022/06/20 04:30:55;;;;;;;;;;;;;;;26.83;58.15;99173.75;2046354;28;19910;-79
2022/06/20 04:31:58;;;;;;;;;;;;;;;26.83;58.32;99176.53;2032468;29;19914;-79
2022/06/20 04:33:13;;;;;;;;;;;;;;;26.81;57.43;99171.47;2029933;29;20006;-79
2022/06/20 04:34:17;;;;;;;;;;;;;;;26.81;57.90;99171.47;2040172;29;19911;-78
2022/06/20 04:35:30;;;;;;;;;;;;;;;26.81;57.47;99174.25;2043384;29;19910;-79
2022/06/20 04:36:48;;;;;;;;;;;;;;;26.82;57.45;99175.00;2037046;29;19911;-79
2022/06/20 04:37:54;;;;;;;;;;;;;;;26.81;57.44;99170.69;2044032;29;20396;-78
2022/06/20 04:39:02;;;;;;;;;;;;;;;26.80;57.38;99169.97;2044184;29;19917;-79
2022/06/20 04:40:21;;;;;;;;;;;;;;;26.78;57.40;99166.91;2040012;29;19917;-79
2022/06/20 04:41:35;;;;;;;;;;;;;;;26.79;57.54;99167.66;2036600;28;20532;-79
2022/06/20 04:42:43;;;;;;;;;;;;;;;26.77;57.19;99170.94;2043688;29;20018;-78
2022/06/20 04:43:50;;;;;;;;;;;;;;;26.78;57.33;99175.22;2034047;29;19934;-79
2022/06/20 04:44:58;;;;;;;;;;;;;;;26.77;57.59;99168.16;2032715;29;20010;-79
2022/06/20 04:46:04;;;;;;;;;;;;;;;26.77;57.55;99173.69;2035515;29;19906;-79
2022/06/20 04:47:23;;;;;;;;;;;;;;;26.77;58.00;99182.03;2037801;29;19926;-79
2022/06/20 04:48:23;;;;;;;;;;;;;;;26.75;57.84;99167.88;2042795;28;20380;-79
2022/06/20 04:49:24;;;;;;;;;;;;;;;26.76;58.21;99172.16;2043179;29;20325;-79
2022/06/20 04:50:26;;;;;;;;;;;;;;;26.75;58.33;99170.66;2043693;29;19921;-79
2022/06/20 04:51:31;;;;;;;;;;;;;;;26.76;57.82;99172.16;2039951;29;20696;-79
2022/06/20 04:52:31;;;;;;;;;;;;;;;26.76;57.82;99171.41;2043568;29;19910;-79
2022/06/20 04:53:35;;;;;;;;;;;;;;;26.75;57.99;99167.88;2043164;29;19910;-79
2022/06/20 04:54:35;;;;;;;;;;;;;;;26.74;58.26;99166.34;2037974;29;19906;-79
2022/06/20 04:55:39;;;;;;;;;;;;;;;26.74;58.63;99171.91;2039591;29;19914;-79
2022/06/20 04:56:40;;;;;;;;;;;;;;;26.74;57.90;99162.81;2042092;29;20153;-79
2022/06/20 04:57:40;;;;;;;;;;;;;;;26.73;58.48;99169.63;2038660;29;19949;-79
2022/06/20 04:58:47;;;;;;;;;;;;;;;26.72;59.00;99165.31;2039898;29;19961;-80
2022/06/20 04:59:47;;;;;;;;;;;;;;;26.72;59.12;99168.06;2042492;29;20005;-79
2022/06/20 05:00:49;;;;;;;;;;;;;;;26.73;58.33;99173.16;2042363;29;19910;-79
2022/06/20 05:01:50;;;;;;;;;;;;;;;26.73;58.09;99181.50;2043063;29;20017;-79
2022/06/20 05:02:51;;;;;;;;;;;;;;;26.73;58.21;99180.72;2042419;29;19921;-79
2022/06/20 05:03:58;;;;;;;;;;;;;;;26.74;57.82;99179.47;2039387;29;20018;-79
2022/06/20 05:04:59;;;;;;;;;;;;;;;26.73;57.54;99184.25;2039226;29;19907;-79
2022/06/20 05:06:00;;;;;;;;;;;;;;;26.74;57.93;99179.47;2030403;29;20019;-79
2022/06/20 05:07:05;;;;;;;;;;;;;;;26.72;58.92;99179.94;2024095;29;19922;-79
2022/06/20 05:08:09;;;;;;;;;;;;;;;26.72;58.91;99174.41;2024753;29;20236;-79
2022/06/20 05:09:14;;;;;;;;;;;;;;;26.72;58.98;99185.50;2030089;29;20471;-79
2022/06/20 05:10:18;;;;;;;;;;;;;;;26.71;58.13;99180.44;2030281;29;20306;-79
2022/06/20 05:11:30;;;;;;;;;;;;;;;26.71;58.68;99183.97;2033313;29;20684;-79
2022/06/20 05:12:37;;;;;;;;;;;;;;;26.71;59.23;99174.88;2036223;29;19929;-80
2022/06/20 05:13:40;;;;;;;;;;;;;;;26.70;58.81;99182.44;2039528;29;19993;-79
2022/06/20 05:14:40;;;;;;;;;;;;;;;26.70;58.51;99178.94;2032367;29;19926;-79
2022/06/20 05:15:46;;;;;;;;;;;;;;;26.71;58.73;99186.75;2029921;29;19917;-79
2022/06/20 05:16:49;;;;;;;;;;;;;;;26.70;59.20;99179.66;2041019;29;19919;-80
2022/06/20 05:17:50;;;;;;;;;;;;;;;26.72;57.59;99185.50;2043771;29;20590;-80
2022/06/20 05:18:53;;;;;;;;;;;;;;;26.63;54.76;99185.66;2039860;29;19911;-80
2022/06/20 05:19:57;;;;;;;;;;;;;;;26.52;53.29;99182.75;2036225;29;20054;-80
2022/06/20 05:21:00;;;;;;;;;;;;;;;26.46;53.84;99182.66;2034893;29;19918;-80
2022/06/20 05:22:03;;;;;;;;;;;;;;;26.48;54.30;99173.88;2033937;29;20464;-80
2022/06/20 05:23:09;;;;;;;;;;;;;;;26.51;54.40;99174.88;2040119;29;19910;-80
2022/06/20 05:24:12;;;;;;;;;;;;;;;26.54;54.70;99190.59;2038639;29;19993;-80
2022/06/20 05:25:16;;;;;;;;;;;;;;;26.53;54.73;99189.81;2038514;29;19918;-81
2022/06/20 05:26:18;;;;;;;;;;;;;;;26.55;55.56;99183.78;2040584;28;19910;-80
2022/06/20 05:27:25;;;;;;;;;;;;;;;26.56;55.78;99183.28;2034297;29;19910;-81
2022/06/20 05:28:26;;;;;;;;;;;;;;;26.55;56.01;99187.31;2035011;29;19911;-82
2022/06/20 05:29:31;;;;;;;;;;;;;;;26.56;56.53;99183.28;2033788;29;19903;-80
2022/06/20 05:30:34;;;;;;;;;;;;;;;26.56;56.22;99174.19;2037483;29;20020;-80
2022/06/20 05:31:39;;;;;;;;;;;;;;;26.57;56.09;99179.28;2040687;29;20370;-79
2022/06/20 05:32:51;;;;;;;;;;;;;;;26.57;56.60;99179.28;2044812;29;19914;-79
2022/06/20 05:33:56;;;;;;;;;;;;;;;26.58;56.61;99180.81;2042746;29;19949;-80
2022/06/20 05:35:06;;;;;;;;;;;;;;;26.57;56.53;99172.94;2044290;29;19910;-80
2022/06/20 05:36:24;;;;;;;;;;;;;;;26.58;57.00;99180.81;2043503;29;19928;-80
2022/06/20 05:37:36;;;;;;;;;;;;;;;26.57;56.41;99184.06;2039410;29;19910;-80
2022/06/20 05:38:39;;;;;;;;;;;;;;;26.57;57.38;99175.72;2042155;29;19998;-79
2022/06/20 05:39:39;;;;;;;;;;;;;;;26.57;57.42;99178.50;2043551;29;19962;-79
2022/06/20 05:40:42;;;;;;;;;;;;;;;26.57;57.11;99173.72;2041487;29;19911;-80
2022/06/20 05:41:43;;;;;;;;;;;;;;;26.57;57.46;99190.38;2043088;29;20160;-80
2022/06/20 05:42:43;;;;;;;;;;;;;;;26.57;57.87;99176.50;2036314;29;19911;-80